Portada
METAR-TAF:

METAR-TAF

Aeropuertos :

Aeropuerto de Albacete

Albacete, España

latitud: 38-57N, longitud: 001-51W, altitud: 702 m

Observación

El informe se hizo hace 37 minutos, a las 13:00 UTC
Viento 3 kt del norte-noroeste, variando entre oeste-suroeste y noreste
Temperatura 11°C
Humedad 43%
Presión 1031 hPa
Visibilidad 10 km o más
sin nubes por debajo de 1500 m y sin presencia de cumulonimbus.

METAR: LEAB 031300Z 33003KT 240V040 CAVOK 11/M01 Q1031 NOSIG

Hora: 14:37 (13:37 UTC)

Pronóstico

El informe se hizo hace 2 horas y 37 minutos, a las 11:00 UTC
Pronóstico válido del 03 a las 12 UTC al 04 a las 12 UTC
Viento 3 kt con dirección variable
Visibilidad 10 km o más
sin nubes por debajo de 1500 m y sin presencia de cumulonimbus.

TAF: LEAB 031100Z 0312/0412 VRB03KT CAVOK TX16/0315Z TNM05/0406Z

Observaciones y pronósticos meteorológicos de más de 4000 aeropuertos (mensajes METAR y TAF).

Los puntos amarillos y rojos representan las estaciones disponibles.

Ponga el ratón en el punto deseado para ver el nombre de la estación.

Haga clic para ver las observaciones y los pronósticos meteorológicos.

Para cambiar el mapa : haga clic en los botones verdes con una cruz de color negro para hacer un zoom, en el botón verde con un guión para alejar o en las flechas verdes para mapas adyacentes.


METAR-TAF: